createdAt,value
2018-12-17T00:00:17.836Z,1012.40
2018-12-17T00:01:18.334Z,1012.40
2018-12-17T00:02:18.264Z,1012.38
2018-12-17T00:03:17.727Z,1012.40
2018-12-17T00:04:18.259Z,1012.43
2018-12-17T00:05:17.661Z,1012.43
2018-12-17T00:06:17.675Z,1012.42
2018-12-17T00:07:18.261Z,1012.39
2018-12-17T00:08:17.544Z,1012.43
2018-12-17T00:09:18.270Z,1012.43
2018-12-17T00:10:17.479Z,1012.42
2018-12-17T00:11:17.498Z,1012.44
2018-12-17T00:12:17.406Z,1012.44
2018-12-17T00:13:17.407Z,1012.45
2018-12-17T00:14:18.264Z,1012.46
2018-12-17T00:15:17.294Z,1012.39
2018-12-17T00:16:17.829Z,1012.44
2018-12-17T00:17:17.318Z,1012.44
2018-12-17T00:18:17.235Z,1012.44
2018-12-17T00:19:17.150Z,1012.49
2018-12-17T00:20:17.765Z,1012.48
2018-12-17T00:21:17.761Z,1012.50
2018-12-17T00:22:17.041Z,1012.50
2018-12-17T00:23:17.327Z,1012.55
2018-12-17T00:24:17.767Z,1012.55
2018-12-17T00:25:17.793Z,1012.57
2018-12-17T00:26:17.776Z,1012.57
2018-12-17T00:27:16.936Z,1012.57
2018-12-17T00:28:16.831Z,1012.59
2018-12-17T00:29:16.894Z,1012.58
2018-12-17T00:30:16.812Z,1012.61
2018-12-17T00:31:16.726Z,1012.59
2018-12-17T00:32:17.281Z,1012.64
2018-12-17T00:33:16.731Z,1012.63
2018-12-17T00:34:16.638Z,1012.64
2018-12-17T00:35:17.283Z,1012.66
2018-12-17T00:36:16.544Z,1012.66
2018-12-17T00:37:17.274Z,1012.68
2018-12-17T00:38:16.860Z,1012.67
2018-12-17T00:39:17.278Z,1012.72
2018-12-17T00:40:16.402Z,1012.75
2018-12-17T00:41:16.375Z,1012.71
2018-12-17T00:42:16.364Z,1012.72
2018-12-17T00:43:17.670Z,1012.67
2018-12-17T00:44:16.273Z,1012.65
2018-12-17T00:45:16.226Z,1012.68
2018-12-17T00:46:16.179Z,1012.67
2018-12-17T00:47:16.777Z,1012.66
2018-12-17T00:48:16.157Z,1012.68
2018-12-17T00:49:17.181Z,1012.68
2018-12-17T00:50:16.065Z,1012.71
2018-12-17T00:51:16.777Z,1012.68
2018-12-17T00:52:15.993Z,1012.71
2018-12-17T00:53:16.863Z,1012.70
2018-12-17T00:54:15.947Z,1012.71
2018-12-17T00:55:16.778Z,1012.75
2018-12-17T00:56:15.814Z,1012.75
2018-12-17T00:57:16.674Z,1012.78
2018-12-17T00:58:15.756Z,1012.79
2018-12-17T00:59:16.284Z,1012.83
2018-12-17T01:00:15.727Z,1012.81
2018-12-17T01:01:15.667Z,1012.81
2018-12-17T01:02:15.646Z,1012.81
2018-12-17T01:03:15.582Z,1012.82
2018-12-17T01:04:15.550Z,1012.81
2018-12-17T01:05:15.851Z,1012.85
2018-12-17T01:06:15.461Z,1012.84
2018-12-17T01:07:15.433Z,1012.80
2018-12-17T01:08:15.397Z,1012.81
2018-12-17T01:09:15.390Z,1012.82
2018-12-17T01:10:15.360Z,1012.80
2018-12-17T01:11:15.382Z,1012.84
2018-12-17T01:12:15.295Z,1012.82
2018-12-17T01:13:15.224Z,1012.92
2018-12-17T01:14:15.183Z,1012.92
2018-12-17T01:15:15.776Z,1012.90
2018-12-17T01:16:15.355Z,1012.90
2018-12-17T01:17:15.086Z,1012.91
2018-12-17T01:18:15.028Z,1012.90
2018-12-17T01:19:15.057Z,1012.91
2018-12-17T01:20:15.031Z,1012.93
2018-12-17T01:21:15.031Z,1012.95
2018-12-17T01:22:14.932Z,1012.93
2018-12-17T01:23:15.796Z,1012.96
2018-12-17T01:24:14.815Z,1012.97
2018-12-17T01:25:15.769Z,1012.97
2018-12-17T01:26:14.880Z,1012.94
2018-12-17T01:27:14.737Z,1012.94
2018-12-17T01:28:14.675Z,1012.95
2018-12-17T01:29:14.665Z,1012.97
2018-12-17T01:30:14.706Z,1012.97
2018-12-17T01:31:14.838Z,1012.96
2018-12-17T01:32:15.291Z,1012.93
2018-12-17T01:33:14.583Z,1012.89
2018-12-17T01:34:14.530Z,1012.88
2018-12-17T01:35:15.276Z,1012.84
2018-12-17T01:36:14.418Z,1012.87
2018-12-17T01:37:14.407Z,1012.87
2018-12-17T01:38:14.324Z,1012.95
2018-12-17T01:39:15.281Z,1012.87
2018-12-17T01:40:14.764Z,1012.87
2018-12-17T01:41:14.206Z,1012.87
2018-12-17T01:42:14.217Z,1012.87
2018-12-17T01:43:14.142Z,1012.87
2018-12-17T01:44:14.103Z,1012.90
2018-12-17T01:45:14.062Z,1012.89
2018-12-17T01:46:14.030Z,1012.94
2018-12-17T01:47:14.050Z,1012.96
2018-12-17T01:48:13.992Z,1012.95
2018-12-17T01:49:14.766Z,1012.94
2018-12-17T01:50:14.767Z,1012.96
2018-12-17T01:51:13.845Z,1012.95
2018-12-17T01:52:13.819Z,1012.88
2018-12-17T01:53:13.812Z,1012.89
2018-12-17T01:54:13.734Z,1012.89
2018-12-17T01:55:13.703Z,1012.90
2018-12-17T01:56:13.701Z,1012.95
2018-12-17T01:57:13.632Z,1012.94
2018-12-17T01:58:13.651Z,1012.95
2018-12-17T01:59:13.552Z,1012.97
2018-12-17T02:00:13.513Z,1013.00
2018-12-17T02:01:14.269Z,1012.97
2018-12-17T02:02:13.446Z,1012.99
2018-12-17T02:03:13.837Z,1012.98
2018-12-17T02:04:14.277Z,1013.00
2018-12-17T02:05:13.334Z,1012.98
2018-12-17T02:06:14.268Z,1012.97
2018-12-17T02:07:13.257Z,1012.98
2018-12-17T02:08:13.267Z,1013.00
2018-12-17T02:09:13.196Z,1013.02
2018-12-17T02:10:13.154Z,1013.05
2018-12-17T02:11:13.116Z,1013.06
2018-12-17T02:12:13.168Z,1013.03
2018-12-17T02:13:13.041Z,1013.06
2018-12-17T02:14:13.050Z,1013.07
2018-12-17T02:15:12.966Z,1013.08
2018-12-17T02:16:12.946Z,1013.08
2018-12-17T02:17:12.941Z,1013.11
2018-12-17T02:18:12.865Z,1013.15
2018-12-17T02:19:12.955Z,1013.15
2018-12-17T02:20:12.791Z,1013.18
2018-12-17T02:21:13.265Z,1013.22
2018-12-17T02:22:12.832Z,1013.21
2018-12-17T02:23:12.824Z,1013.22
2018-12-17T02:24:12.677Z,1013.20
2018-12-17T02:25:12.644Z,1013.18
2018-12-17T02:26:12.554Z,1013.19
2018-12-17T02:27:12.526Z,1013.22
2018-12-17T02:28:12.538Z,1013.17
2018-12-17T02:29:12.458Z,1013.18
2018-12-17T02:30:12.452Z,1013.20
2018-12-17T02:31:12.450Z,1013.19
2018-12-17T02:32:12.332Z,1013.24
2018-12-17T02:33:12.303Z,1013.22
2018-12-17T02:34:12.315Z,1013.21
2018-12-17T02:35:12.225Z,1013.18
2018-12-17T02:36:12.190Z,1013.20
2018-12-17T02:37:12.151Z,1013.21
2018-12-17T02:38:12.124Z,1013.23
2018-12-17T02:39:12.139Z,1013.21
2018-12-17T02:40:12.068Z,1013.27
2018-12-17T02:41:12.005Z,1013.29
2018-12-17T02:42:11.969Z,1013.30
2018-12-17T02:43:11.929Z,1013.37
2018-12-17T02:44:11.944Z,1013.36
2018-12-17T02:45:11.848Z,1013.36
2018-12-17T02:46:11.821Z,1013.41
2018-12-17T02:47:11.778Z,1013.36
2018-12-17T02:48:11.743Z,1013.36
2018-12-17T02:49:11.824Z,1013.37
2018-12-17T02:50:11.845Z,1013.36
2018-12-17T02:51:12.312Z,1013.37
2018-12-17T02:52:12.281Z,1013.35
2018-12-17T02:53:12.271Z,1013.33
2018-12-17T02:54:12.269Z,1013.35
2018-12-17T02:55:11.686Z,1013.35
2018-12-17T02:56:11.456Z,1013.40
2018-12-17T02:57:11.409Z,1013.38
2018-12-17T02:58:11.371Z,1013.37
2018-12-17T02:59:11.340Z,1013.38
2018-12-17T03:00:11.843Z,1013.40
2018-12-17T03:01:11.309Z,1013.41
2018-12-17T03:02:11.268Z,1013.40
2018-12-17T03:03:11.192Z,1013.42
2018-12-17T03:04:11.147Z,1013.40
2018-12-17T03:05:11.224Z,1013.39
2018-12-17T03:06:11.193Z,1013.35
2018-12-17T03:07:11.080Z,1013.38
2018-12-17T03:08:11.777Z,1013.38
2018-12-17T03:09:10.971Z,1013.39
2018-12-17T03:10:11.677Z,1013.41
2018-12-17T03:11:10.940Z,1013.42
2018-12-17T03:12:10.861Z,1013.44
2018-12-17T03:13:10.877Z,1013.45
2018-12-17T03:14:10.787Z,1013.46
2018-12-17T03:15:10.851Z,1013.48
2018-12-17T03:16:10.831Z,1013.48
2018-12-17T03:17:10.674Z,1013.43
2018-12-17T03:18:11.272Z,1013.50
2018-12-17T03:19:10.604Z,1013.48
2018-12-17T03:20:10.606Z,1013.46
2018-12-17T03:21:10.592Z,1013.48
2018-12-17T03:22:10.513Z,1013.43
2018-12-17T03:23:10.528Z,1013.42
2018-12-17T03:24:11.294Z,1013.44
2018-12-17T03:25:10.384Z,1013.44
2018-12-17T03:26:10.492Z,1013.43
2018-12-17T03:27:10.315Z,1013.47
2018-12-17T03:28:10.305Z,1013.48
2018-12-17T03:29:10.244Z,1013.48
2018-12-17T03:30:10.211Z,1013.52
2018-12-17T03:31:10.428Z,1013.50
2018-12-17T03:32:10.138Z,1013.44
2018-12-17T03:33:10.095Z,1013.52
2018-12-17T03:34:10.103Z,1013.50
2018-12-17T03:35:10.026Z,1013.50
2018-12-17T03:36:10.093Z,1013.46
2018-12-17T03:37:09.950Z,1013.49
2018-12-17T03:38:09.923Z,1013.48
2018-12-17T03:39:09.879Z,1013.45
2018-12-17T03:40:09.884Z,1013.48
2018-12-17T03:41:09.888Z,1013.47
2018-12-17T03:42:09.789Z,1013.48
2018-12-17T03:43:09.791Z,1013.52
2018-12-17T03:44:09.703Z,1013.49
2018-12-17T03:45:09.667Z,1013.50
2018-12-17T03:46:10.275Z,1013.48
2018-12-17T03:47:09.645Z,1013.52
2018-12-17T03:48:09.622Z,1013.53
2018-12-17T03:49:09.523Z,1013.63
2018-12-17T03:50:10.275Z,1013.60
2018-12-17T03:51:10.287Z,1013.62
2018-12-17T03:52:09.418Z,1013.63
2018-12-17T03:53:09.961Z,1013.67
2018-12-17T03:54:12.274Z,1013.65
2018-12-17T03:55:09.316Z,1013.66
2018-12-17T03:56:09.781Z,1013.66
2018-12-17T03:57:09.234Z,1013.67
2018-12-17T03:58:09.342Z,1013.68
2018-12-17T03:59:09.191Z,1013.66
2018-12-17T04:00:09.122Z,1013.68
2018-12-17T04:01:09.789Z,1013.70
2018-12-17T04:02:09.050Z,1013.72
2018-12-17T04:03:09.328Z,1013.71
2018-12-17T04:04:08.981Z,1013.69
2018-12-17T04:05:09.802Z,1013.70
2018-12-17T04:06:08.913Z,1013.69
2018-12-17T04:07:08.878Z,1013.70
2018-12-17T04:08:08.882Z,1013.73
2018-12-17T04:09:08.852Z,1013.73
2018-12-17T04:10:08.767Z,1013.74
2018-12-17T04:11:08.729Z,1013.75
2018-12-17T04:12:08.696Z,1013.79
2018-12-17T04:13:08.656Z,1013.72
2018-12-17T04:14:08.666Z,1013.78
2018-12-17T04:15:08.582Z,1013.72
2018-12-17T04:16:08.561Z,1013.73
2018-12-17T04:17:09.274Z,1013.77
2018-12-17T04:18:08.521Z,1013.79
2018-12-17T04:19:08.444Z,1013.79
2018-12-17T04:20:08.827Z,1013.80
2018-12-17T04:21:09.274Z,1013.77
2018-12-17T04:22:09.274Z,1013.75
2018-12-17T04:23:09.302Z,1013.74
2018-12-17T04:24:08.262Z,1013.74
2018-12-17T04:25:08.271Z,1013.75
2018-12-17T04:26:08.189Z,1013.73
2018-12-17T04:27:08.154Z,1013.75
2018-12-17T04:28:15.181Z,1013.78
2018-12-17T04:29:19.683Z,1013.82
2018-12-17T04:30:08.046Z,1013.81
2018-12-17T04:31:08.365Z,1013.85
2018-12-17T04:32:07.976Z,1013.89
2018-12-17T04:33:08.774Z,1013.89
2018-12-17T04:34:08.328Z,1013.92
2018-12-17T04:35:07.874Z,1013.87
2018-12-17T04:36:08.379Z,1013.88
2018-12-17T04:37:07.965Z,1013.87
2018-12-17T04:38:07.772Z,1013.82
2018-12-17T04:39:08.275Z,1013.82
2018-12-17T04:40:07.694Z,1013.82
2018-12-17T04:41:07.771Z,1013.79
2018-12-17T04:42:07.689Z,1013.83
2018-12-17T04:43:08.276Z,1013.80
2018-12-17T04:44:07.596Z,1013.85
2018-12-17T04:45:07.602Z,1013.86
2018-12-17T04:46:07.990Z,1013.86
2018-12-17T04:47:07.446Z,1013.85
2018-12-17T04:48:07.403Z,1013.84
2018-12-17T04:49:07.370Z,1013.90
2018-12-17T04:50:07.348Z,1013.88
2018-12-17T04:51:08.348Z,1013.89
2018-12-17T04:52:07.311Z,1013.97
2018-12-17T04:53:07.227Z,1013.95
2018-12-17T04:54:07.234Z,1013.95
2018-12-17T04:55:07.779Z,1013.95
2018-12-17T04:56:07.134Z,1013.97
2018-12-17T04:57:07.355Z,1014.01
2018-12-17T04:58:07.110Z,1014.04
2018-12-17T04:59:14.365Z,1014.05
2018-12-17T05:00:07.780Z,1014.05
2018-12-17T05:01:08.163Z,1014.05
2018-12-17T05:02:07.777Z,1014.02
2018-12-17T05:03:07.344Z,1014.04
2018-12-17T05:04:07.780Z,1014.05
2018-12-17T05:05:07.782Z,1014.05
2018-12-17T05:06:07.281Z,1014.08
2018-12-17T05:07:07.288Z,1014.11
2018-12-17T05:08:06.835Z,1014.15
2018-12-17T05:09:07.287Z,1014.14
2018-12-17T05:10:07.280Z,1014.19
2018-12-17T05:11:06.585Z,1014.20
2018-12-17T05:12:06.593Z,1014.23
2018-12-17T05:13:06.566Z,1014.23
2018-12-17T05:14:06.483Z,1014.27
2018-12-17T05:15:07.283Z,1014.34
2018-12-17T05:16:06.418Z,1014.31
2018-12-17T05:17:06.427Z,1014.34
2018-12-17T05:18:07.301Z,1014.34
2018-12-17T05:19:06.840Z,1014.35
2018-12-17T05:20:06.789Z,1014.39
2018-12-17T05:21:06.781Z,1014.41
2018-12-17T05:22:06.781Z,1014.42
2018-12-17T05:23:06.779Z,1014.42
2018-12-17T05:24:06.328Z,1014.45
2018-12-17T05:25:06.786Z,1014.46
2018-12-17T05:26:06.780Z,1014.44
2018-12-17T05:27:06.334Z,1014.49
2018-12-17T05:28:06.781Z,1014.45
2018-12-17T05:29:06.780Z,1014.45
2018-12-17T05:30:05.906Z,1014.47
2018-12-17T05:31:05.896Z,1014.50
2018-12-17T05:32:06.333Z,1014.57
2018-12-17T05:33:05.801Z,1014.57
2018-12-17T05:34:05.808Z,1014.54
2018-12-17T05:35:05.798Z,1014.58
2018-12-17T05:36:05.691Z,1014.59
2018-12-17T05:37:05.652Z,1014.56
2018-12-17T05:38:05.763Z,1014.60
2018-12-17T05:39:05.589Z,1014.61
2018-12-17T05:40:05.552Z,1014.64
2018-12-17T05:41:05.528Z,1014.64
2018-12-17T05:42:05.478Z,1014.67
2018-12-17T05:43:05.484Z,1014.70
2018-12-17T05:44:06.188Z,1014.72
2018-12-17T05:45:05.376Z,1014.75
2018-12-17T05:46:05.335Z,1014.72
2018-12-17T05:47:06.448Z,1014.74
2018-12-17T05:48:05.362Z,1014.74
2018-12-17T05:49:05.231Z,1014.77
2018-12-17T05:50:05.777Z,1014.77
2018-12-17T05:51:05.189Z,1014.73
2018-12-17T05:52:05.119Z,1014.69
2018-12-17T05:53:05.143Z,1014.63
2018-12-17T05:54:05.046Z,1014.67
2018-12-17T05:55:05.014Z,1014.64
2018-12-17T05:56:04.979Z,1014.71
2018-12-17T05:57:05.002Z,1014.81
2018-12-17T05:58:04.974Z,1014.84
2018-12-17T05:59:04.874Z,1014.88
2018-12-17T06:00:04.836Z,1014.88
2018-12-17T06:01:04.799Z,1014.90
2018-12-17T06:02:04.763Z,1014.92
2018-12-17T06:03:04.799Z,1014.95
2018-12-17T06:04:04.691Z,1014.96
2018-12-17T06:05:04.661Z,1014.95
2018-12-17T06:06:04.629Z,1014.96
2018-12-17T06:07:05.280Z,1014.97
2018-12-17T06:08:04.609Z,1014.99
2018-12-17T06:09:04.559Z,1014.95
2018-12-17T06:10:04.478Z,1014.95
2018-12-17T06:11:04.449Z,1014.94
2018-12-17T06:12:04.412Z,1014.89
2018-12-17T06:13:04.837Z,1014.89
2018-12-17T06:14:04.392Z,1014.94
2018-12-17T06:15:04.299Z,1014.94
2018-12-17T06:16:04.306Z,1015.00
2018-12-17T06:17:04.242Z,1015.00
2018-12-17T06:18:04.194Z,1015.00
2018-12-17T06:19:04.208Z,1014.98
2018-12-17T06:20:04.123Z,1014.99
2018-12-17T06:21:04.081Z,1015.04
2018-12-17T06:22:04.089Z,1015.03
2018-12-17T06:23:04.014Z,1015.05
2018-12-17T06:24:04.020Z,1015.04
2018-12-17T06:25:03.944Z,1015.06
2018-12-17T06:26:03.913Z,1015.08
2018-12-17T06:27:04.330Z,1015.16
2018-12-17T06:28:03.837Z,1015.11
2018-12-17T06:29:03.844Z,1015.14
2018-12-17T06:30:03.807Z,1015.18
2018-12-17T06:31:04.288Z,1015.16
2018-12-17T06:32:03.739Z,1015.22
2018-12-17T06:33:03.659Z,1015.22
2018-12-17T06:34:03.620Z,1015.26
2018-12-17T06:35:03.587Z,1015.32
2018-12-17T06:36:03.834Z,1015.30
2018-12-17T06:37:03.518Z,1015.31
2018-12-17T06:38:03.486Z,1015.31
2018-12-17T06:39:03.495Z,1015.30
2018-12-17T06:40:10.041Z,1015.32
2018-12-17T06:41:03.372Z,1015.30
2018-12-17T06:42:04.277Z,1015.33
2018-12-17T06:43:03.303Z,1015.34
2018-12-17T06:44:06.190Z,1015.33
2018-12-17T06:45:03.276Z,1015.35
2018-12-17T06:46:03.196Z,1015.35
2018-12-17T06:47:03.345Z,1015.36
2018-12-17T06:48:03.786Z,1015.36
2018-12-17T06:49:03.131Z,1015.35
2018-12-17T06:50:03.058Z,1015.33
2018-12-17T06:51:03.017Z,1015.35
2018-12-17T06:52:03.043Z,1015.36
2018-12-17T06:53:02.958Z,1015.40
2018-12-17T06:54:02.922Z,1015.41
2018-12-17T06:55:02.927Z,1015.43
2018-12-17T06:56:03.783Z,1015.42
2018-12-17T06:57:03.334Z,1015.48
2018-12-17T06:58:03.287Z,1015.48
2018-12-17T06:59:02.731Z,1015.48
2018-12-17T07:00:02.696Z,1015.51
2018-12-17T07:01:02.659Z,1015.49
2018-12-17T07:02:02.683Z,1015.50
2018-12-17T07:03:02.593Z,1015.51
2018-12-17T07:04:02.569Z,1015.56
2018-12-17T07:05:02.520Z,1015.55
2018-12-17T07:06:02.484Z,1015.55
2018-12-17T07:07:02.871Z,1015.54
2018-12-17T07:08:02.455Z,1015.55
2018-12-17T07:09:02.382Z,1015.57
2018-12-17T07:10:02.344Z,1015.58
2018-12-17T07:11:02.309Z,1015.60
2018-12-17T07:12:02.277Z,1015.60
2018-12-17T07:13:02.284Z,1015.61
2018-12-17T07:14:02.223Z,1015.62
2018-12-17T07:15:02.167Z,1015.66
2018-12-17T07:16:02.129Z,1015.64
2018-12-17T07:17:02.095Z,1015.61
2018-12-17T07:18:02.108Z,1015.61
2018-12-17T07:19:02.029Z,1015.62
2018-12-17T07:20:01.991Z,1015.61
2018-12-17T07:21:02.798Z,1015.65
2018-12-17T07:22:01.957Z,1015.65
2018-12-17T07:23:01.947Z,1015.69
2018-12-17T07:24:01.852Z,1015.72
2018-12-17T07:25:01.815Z,1015.73
2018-12-17T07:26:01.779Z,1015.74
2018-12-17T07:27:01.769Z,1015.75
2018-12-17T07:28:01.775Z,1015.78
2018-12-17T07:29:01.678Z,1015.83
2018-12-17T07:30:02.314Z,1015.87
2018-12-17T07:31:01.600Z,1015.84
2018-12-17T07:32:01.562Z,1015.85
2018-12-17T07:33:01.603Z,1015.90
2018-12-17T07:34:02.286Z,1015.94
2018-12-17T07:35:01.492Z,1015.89
2018-12-17T07:36:01.427Z,1015.91
2018-12-17T07:37:01.387Z,1015.94
2018-12-17T07:38:01.397Z,1015.90
2018-12-17T07:39:01.439Z,1015.95
2018-12-17T07:40:01.291Z,1015.94
2018-12-17T07:41:01.848Z,1015.92
2018-12-17T07:42:01.210Z,1015.96
2018-12-17T07:43:01.175Z,1015.97
2018-12-17T07:44:01.212Z,1015.98
2018-12-17T07:45:01.118Z,1015.98
2018-12-17T07:46:01.799Z,1015.98
2018-12-17T07:47:01.038Z,1016.02
2018-12-17T07:48:01.004Z,1016.02
2018-12-17T07:49:01.000Z,1016.03
2018-12-17T07:50:00.926Z,1015.99
2018-12-17T07:51:00.892Z,1016.03
2018-12-17T07:52:00.890Z,1016.08
2018-12-17T07:53:00.824Z,1016.06
2018-12-17T07:54:00.866Z,1016.09
2018-12-17T07:55:00.756Z,1016.13
2018-12-17T07:56:00.715Z,1016.11
2018-12-17T07:57:00.683Z,1016.11
2018-12-17T07:58:01.285Z,1016.18
2018-12-17T07:59:00.685Z,1016.19
2018-12-17T08:00:00.577Z,1016.20
2018-12-17T08:01:00.544Z,1016.18
2018-12-17T08:02:00.511Z,1016.23
2018-12-17T08:03:00.479Z,1016.25
2018-12-17T08:04:00.483Z,1016.23
2018-12-17T08:05:00.403Z,1016.26
2018-12-17T08:06:00.365Z,1016.24
2018-12-17T08:07:00.512Z,1016.20
2018-12-17T08:08:00.361Z,1016.23
2018-12-17T08:09:00.257Z,1016.24
2018-12-17T08:10:00.224Z,1016.27
2018-12-17T08:11:00.241Z,1016.27
2018-12-17T08:12:00.153Z,1016.22
2018-12-17T08:13:00.182Z,1016.26
2018-12-17T08:14:00.088Z,1016.24
2018-12-17T08:15:00.048Z,1016.28
2018-12-17T08:16:00.059Z,1016.24
2018-12-17T08:16:59.979Z,1016.24
2018-12-17T08:18:00.005Z,1016.27
2018-12-17T08:18:59.919Z,1016.29
2018-12-17T08:19:59.925Z,1016.34
2018-12-17T08:20:59.843Z,1016.33
2018-12-17T08:21:59.805Z,1016.32
2018-12-17T08:22:59.828Z,1016.32
2018-12-17T08:23:59.755Z,1016.28
2018-12-17T08:24:59.747Z,1016.32
2018-12-17T08:25:59.666Z,1016.28
2018-12-17T08:26:59.634Z,1016.32
2018-12-17T08:27:59.657Z,1016.33
2018-12-17T08:28:59.567Z,1016.33
2018-12-17T08:30:03.832Z,1016.34
2018-12-17T08:30:59.490Z,1016.32
2018-12-17T08:31:59.455Z,1016.34
2018-12-17T08:32:59.472Z,1016.33
2018-12-17T08:33:59.452Z,1016.35
2018-12-17T08:34:59.351Z,1016.39
2018-12-17T08:35:59.324Z,1016.40
2018-12-17T08:36:59.284Z,1016.38
2018-12-17T08:37:59.295Z,1016.35
2018-12-17T08:38:59.292Z,1016.39
2018-12-17T08:39:59.190Z,1016.38
2018-12-17T08:40:59.145Z,1016.42
2018-12-17T08:41:59.789Z,1016.43
2018-12-17T08:42:59.076Z,1016.49
2018-12-17T08:43:59.103Z,1016.51
2018-12-17T08:44:59.793Z,1016.51
2018-12-17T08:45:58.977Z,1016.51
2018-12-17T08:46:58.936Z,1016.57
2018-12-17T08:47:58.905Z,1016.57
2018-12-17T08:48:59.001Z,1016.62
2018-12-17T08:49:58.846Z,1016.68
2018-12-17T08:50:58.801Z,1016.70
2018-12-17T08:51:58.812Z,1016.71
2018-12-17T08:52:58.734Z,1016.72
2018-12-17T08:53:58.695Z,1016.78
2018-12-17T08:54:58.708Z,1016.78
2018-12-17T08:55:58.635Z,1016.82
2018-12-17T08:56:58.592Z,1016.82
2018-12-17T08:57:58.605Z,1016.78
2018-12-17T08:58:58.528Z,1016.85
2018-12-17T08:59:58.486Z,1016.86
2018-12-17T09:00:58.459Z,1016.84
2018-12-17T09:01:58.423Z,1016.84
2018-12-17T09:02:58.430Z,1016.87
2018-12-17T09:03:58.353Z,1016.89
2018-12-17T09:04:58.361Z,1016.91
2018-12-17T09:05:58.286Z,1016.91
2018-12-17T09:06:58.250Z,1017.00
2018-12-17T09:07:58.259Z,1017.00
2018-12-17T09:08:58.200Z,1016.95
2018-12-17T09:09:58.185Z,1016.92
2018-12-17T09:10:58.113Z,1016.92
2018-12-17T09:11:58.081Z,1016.93
2018-12-17T09:12:58.376Z,1016.92
2018-12-17T09:13:58.040Z,1016.93
2018-12-17T09:14:57.976Z,1016.94
2018-12-17T09:15:57.946Z,1016.94
2018-12-17T09:16:57.907Z,1016.90
2018-12-17T09:17:57.926Z,1016.92
2018-12-17T09:18:57.837Z,1016.94
2018-12-17T09:19:57.852Z,1016.87
2018-12-17T09:20:57.771Z,1016.93
2018-12-17T09:21:57.741Z,1016.92
2018-12-17T09:22:57.704Z,1016.97
2018-12-17T09:23:57.725Z,1016.94
2018-12-17T09:24:57.690Z,1016.94
2018-12-17T09:25:57.617Z,1016.94
2018-12-17T09:26:57.681Z,1016.97
2018-12-17T09:27:57.534Z,1017.00
2018-12-17T09:28:57.600Z,1017.01
2018-12-17T09:29:57.466Z,1017.05
2018-12-17T09:30:57.489Z,1017.09
2018-12-17T09:31:57.396Z,1017.09
2018-12-17T09:32:57.394Z,1017.11
2018-12-17T09:33:57.384Z,1017.12
2018-12-17T09:34:57.301Z,1017.18
2018-12-17T09:35:57.309Z,1017.18
2018-12-17T09:36:57.228Z,1017.16
2018-12-17T09:37:57.236Z,1017.17
2018-12-17T09:38:57.216Z,1017.14
2018-12-17T09:39:57.144Z,1017.15
2018-12-17T09:40:57.144Z,1017.15
2018-12-17T09:41:57.059Z,1017.17
2018-12-17T09:42:57.030Z,1017.20
2018-12-17T09:43:57.055Z,1017.21
2018-12-17T09:44:56.964Z,1017.19
2018-12-17T09:45:56.930Z,1017.19
2018-12-17T09:46:56.888Z,1017.20
2018-12-17T09:47:56.854Z,1017.19
2018-12-17T09:48:56.862Z,1017.19
2018-12-17T09:49:56.791Z,1017.19
2018-12-17T09:50:56.807Z,1017.21
2018-12-17T09:51:57.298Z,1017.20
2018-12-17T09:52:56.690Z,1017.18
2018-12-17T09:53:56.798Z,1017.18
2018-12-17T09:54:56.681Z,1017.22
2018-12-17T09:55:56.636Z,1017.20
2018-12-17T09:56:56.554Z,1017.16
2018-12-17T09:57:57.311Z,1017.10
2018-12-17T09:58:56.497Z,1017.10
2018-12-17T09:59:56.456Z,1017.12
2018-12-17T10:00:56.463Z,1017.12
2018-12-17T10:01:56.378Z,1017.12
2018-12-17T10:02:56.926Z,1017.10
2018-12-17T10:03:57.380Z,1017.12
2018-12-17T10:04:56.288Z,1017.13
2018-12-17T10:05:56.264Z,1017.14
2018-12-17T10:06:56.212Z,1017.19
2018-12-17T10:07:56.231Z,1017.18
2018-12-17T10:08:56.148Z,1017.17
2018-12-17T10:09:56.115Z,1017.19
2018-12-17T10:10:56.079Z,1017.24
2018-12-17T10:11:56.043Z,1017.20
2018-12-17T10:12:56.196Z,1017.22
2018-12-17T10:13:56.712Z,1017.22
2018-12-17T10:14:55.952Z,1017.21
2018-12-17T10:15:56.374Z,1017.21
2018-12-17T10:16:55.881Z,1017.19
2018-12-17T10:17:56.799Z,1017.17
2018-12-17T10:18:56.814Z,1017.18
2018-12-17T10:19:55.787Z,1017.13
2018-12-17T10:20:55.811Z,1017.18
2018-12-17T10:21:55.856Z,1017.18
2018-12-17T10:22:55.672Z,1017.21
2018-12-17T10:23:56.317Z,1017.21
2018-12-17T10:24:55.859Z,1017.21
2018-12-17T10:25:55.577Z,1017.17
2018-12-17T10:26:55.551Z,1017.17
2018-12-17T10:27:55.512Z,1017.11
2018-12-17T10:28:55.473Z,1017.09
2018-12-17T10:29:55.490Z,1017.12
2018-12-17T10:30:55.454Z,1017.14
2018-12-17T10:31:55.383Z,1017.18
2018-12-17T10:32:55.346Z,1017.14
2018-12-17T10:33:55.312Z,1017.16
2018-12-17T10:34:55.278Z,1017.11
2018-12-17T10:35:55.316Z,1017.12
2018-12-17T10:36:55.209Z,1017.14
2018-12-17T10:37:55.177Z,1017.08
2018-12-17T10:38:55.811Z,1017.13
2018-12-17T10:39:55.106Z,1017.11
2018-12-17T10:40:55.126Z,1017.16
2018-12-17T10:41:55.107Z,1017.14
2018-12-17T10:42:55.011Z,1017.12
2018-12-17T10:43:55.363Z,1017.09
2018-12-17T10:44:54.944Z,1017.12
2018-12-17T10:45:54.916Z,1017.12
2018-12-17T10:46:54.883Z,1017.14
2018-12-17T10:47:54.886Z,1017.15
2018-12-17T10:48:55.803Z,1017.17
2018-12-17T10:49:55.304Z,1017.20
2018-12-17T10:50:54.797Z,1017.15
2018-12-17T10:51:55.305Z,1017.15
2018-12-17T10:52:54.681Z,1017.11
2018-12-17T10:53:55.310Z,1017.12
2018-12-17T10:54:54.638Z,1017.14
2018-12-17T10:55:54.623Z,1017.18
2018-12-17T10:56:54.540Z,1017.17
2018-12-17T10:57:54.511Z,1017.18
2018-12-17T10:58:54.543Z,1017.13
2018-12-17T10:59:54.450Z,1017.15
2018-12-17T11:00:54.410Z,1017.20
2018-12-17T11:01:54.376Z,1017.22
2018-12-17T11:02:54.343Z,1017.18
2018-12-17T11:03:54.352Z,1017.11
2018-12-17T11:04:54.812Z,1017.14
2018-12-17T11:05:54.805Z,1017.13
2018-12-17T11:06:54.810Z,1017.09
2018-12-17T11:07:54.361Z,1017.12
2018-12-17T11:08:54.810Z,1017.09
2018-12-17T11:09:54.116Z,1017.07
2018-12-17T11:10:54.098Z,1017.09
2018-12-17T11:11:54.045Z,1017.09
2018-12-17T11:12:54.073Z,1017.06
2018-12-17T11:13:53.978Z,1017.09
2018-12-17T11:14:54.025Z,1017.06
2018-12-17T11:15:53.913Z,1017.04
2018-12-17T11:16:54.717Z,1016.97
2018-12-17T11:17:53.889Z,1016.98
2018-12-17T11:18:53.813Z,1016.97
2018-12-17T11:19:53.783Z,1016.99
2018-12-17T11:20:53.787Z,1017.02
2018-12-17T11:21:53.713Z,1017.05
2018-12-17T11:22:53.681Z,1016.99
2018-12-17T11:23:53.694Z,1016.96
2018-12-17T11:24:53.611Z,1016.99
2018-12-17T11:25:53.583Z,1016.97
2018-12-17T11:26:53.604Z,1016.94
2018-12-17T11:27:53.512Z,1016.93
2018-12-17T11:28:54.307Z,1016.96
2018-12-17T11:29:53.447Z,1016.95
2018-12-17T11:30:53.453Z,1016.95
2018-12-17T11:31:53.381Z,1017.01
2018-12-17T11:32:53.349Z,1017.00
2018-12-17T11:33:53.326Z,1017.04
2018-12-17T11:34:53.313Z,1017.04
2018-12-17T11:35:53.297Z,1016.99
2018-12-17T11:36:53.265Z,1017.07
2018-12-17T11:37:53.195Z,1017.04
2018-12-17T11:38:53.153Z,1017.01
2018-12-17T11:39:53.120Z,1016.98
2018-12-17T11:40:53.090Z,1017.01
2018-12-17T11:41:53.135Z,1017.03
2018-12-17T11:42:53.022Z,1017.08
2018-12-17T11:43:52.990Z,1017.13
2018-12-17T11:44:52.958Z,1017.13
2018-12-17T11:45:52.933Z,1017.06
2018-12-17T11:46:52.955Z,1017.05
2018-12-17T11:47:52.858Z,1017.03
2018-12-17T11:48:53.811Z,1017.06
2018-12-17T11:49:52.796Z,1017.05
2018-12-17T11:50:52.760Z,1017.06
2018-12-17T11:51:52.766Z,1017.06
2018-12-17T11:52:52.704Z,1017.07
2018-12-17T11:53:52.655Z,1017.05
2018-12-17T11:54:52.625Z,1017.11
2018-12-17T11:55:52.593Z,1017.12
2018-12-17T11:56:52.607Z,1017.10
2018-12-17T11:57:52.576Z,1017.08
2018-12-17T11:58:52.500Z,1017.12
2018-12-17T11:59:52.463Z,1017.14
2018-12-17T12:00:53.954Z,1017.10
2018-12-17T12:01:52.395Z,1017.09
2018-12-17T12:02:58.927Z,1017.08
2018-12-17T12:03:52.380Z,1017.07
2018-12-17T12:04:52.306Z,1017.11